Time;durP1;ratioP1;P1;durP2;ratioP2;P2;SDS_P1;SDS_P2;PMS_P1;PMS_P2;Temp;Humidity;BMP_temperature;BMP_pressure;BME280_temperature;BME280_humidity;BME280_pressure;Samples;Min_cycle;Max_cycle;Signal;HPM_P1;HPM_P2
2023/02/08 00:00:21;;;;;;;9.15;7.18;;;3.60;79.20;;;;;;5113492;27;20085;-78
2023/02/08 00:02:48;;;;;;;9.55;7.53;;;3.60;79.30;;;;;;5095212;27;20468;-78
2023/02/08 00:05:13;;;;;;;8.80;7.03;;;3.60;79.30;;;;;;5114961;27;20110;-78
2023/02/08 00:07:39;;;;;;;8.15;6.65;;;3.60;79.30;;;;;;5111281;27;20164;-78
2023/02/08 00:10:06;;;;;;;9.38;6.70;;;3.50;79.20;;;;;;5129522;27;20051;-78
2023/02/08 00:12:35;;;;;;;9.35;6.70;;;3.50;79.20;;;;;;5111422;27;20038;-78
2023/02/08 00:15:01;;;;;;;7.60;6.07;;;3.50;79.20;;;;;;5125189;27;20036;-78
2023/02/08 00:17:26;;;;;;;9.07;6.75;;;3.50;79.20;;;;;;5162498;27;20027;-78
2023/02/08 00:19:52;;;;;;;9.00;7.60;;;3.50;79.20;;;;;;5095239;28;20511;-78
2023/02/08 00:22:18;;;;;;;9.52;7.40;;;3.50;79.20;;;;;;5103136;27;20046;-78
2023/02/08 00:24:44;;;;;;;8.60;7.00;;;3.40;79.20;;;;;;5111871;27;20034;-78
2023/02/08 00:27:09;;;;;;;8.95;7.03;;;3.40;79.20;;;;;;5117530;27;20535;-78
2023/02/08 00:29:36;;;;;;;8.05;6.88;;;3.40;79.20;;;;;;5114605;27;20261;-78
2023/02/08 00:32:01;;;;;;;8.90;7.35;;;3.40;79.20;;;;;;5110388;27;20042;-77
2023/02/08 00:34:27;;;;;;;8.93;7.03;;;3.40;79.20;;;;;;5108838;27;20104;-78
2023/02/08 00:36:53;;;;;;;8.88;7.15;;;3.30;79.10;;;;;;5114862;27;20042;-78
2023/02/08 00:39:20;;;;;;;9.02;7.32;;;3.30;79.20;;;;;;5119159;27;20031;-78
2023/02/08 00:41:46;;;;;;;9.82;7.65;;;3.40;79.20;;;;;;5125263;27;20037;-78
2023/02/08 00:44:12;;;;;;;9.35;6.97;;;3.30;79.10;;;;;;5131490;27;20595;-78
2023/02/08 00:46:38;;;;;;;9.27;7.18;;;3.30;79.10;;;;;;5125289;27;20110;-78
2023/02/08 00:49:04;;;;;;;8.27;7.03;;;3.30;79.10;;;;;;5096407;27;20035;-78
2023/02/08 00:51:30;;;;;;;9.00;7.45;;;3.30;79.10;;;;;;5107340;28;20054;-77
2023/02/08 00:53:55;;;;;;;9.85;7.45;;;3.30;79.20;;;;;;5130098;27;20039;-77
2023/02/08 00:56:22;;;;;;;8.38;6.70;;;3.20;79.10;;;;;;5115977;27;20076;-79
2023/02/08 00:58:47;;;;;;;9.07;8.15;;;3.20;79.20;;;;;;5128862;27;20051;-78
2023/02/08 01:01:13;;;;;;;9.90;7.78;;;3.20;79.20;;;;;;5113977;27;20066;-77
2023/02/08 01:03:41;;;;;;;9.07;7.50;;;3.20;79.80;;;;;;5088629;27;20054;-78
2023/02/08 01:06:09;;;;;;;10.27;7.90;;;3.20;79.20;;;;;;5120193;27;20031;-77
2023/02/08 01:08:36;;;;;;;9.18;7.35;;;3.10;79.10;;;;;;5128753;27;20418;-77
2023/02/08 01:11:14;;;;;;;9.65;7.22;;;3.10;79.20;;;;;;5115258;27;20129;-77
2023/02/08 01:13:41;;;;;;;8.20;6.70;;;3.10;79.20;;;;;;5128393;27;20136;-78
2023/02/08 01:16:09;;;;;;;8.77;7.20;;;3.10;79.20;;;;;;5128719;27;20033;-76
2023/02/08 01:18:37;;;;;;;9.10;7.63;;;3.10;79.10;;;;;;5135528;27;20035;-77
2023/02/08 01:21:05;;;;;;;9.25;7.55;;;3.00;79.10;;;;;;5130277;27;20077;-77
2023/02/08 01:23:30;;;;;;;8.43;7.47;;;3.10;79.20;;;;;;5116262;27;20034;-77
2023/02/08 01:25:56;;;;;;;9.10;6.90;;;3.00;79.10;;;;;;5113592;28;20040;-85
2023/02/08 01:28:22;;;;;;;9.02;7.13;;;3.10;79.10;;;;;;5114832;28;20035;-84
2023/02/08 01:30:48;;;;;;;8.25;6.55;;;3.00;79.10;;;;;;5131328;27;20034;-84
2023/02/08 01:33:13;;;;;;;9.52;7.75;;;3.00;79.10;;;;;;5113926;28;20039;-84
2023/02/08 01:35:39;;;;;;;8.75;7.13;;;3.00;79.10;;;;;;5113865;28;20030;-84
2023/02/08 01:38:05;;;;;;;9.25;7.32;;;3.00;79.00;;;;;;5113897;28;20036;-83
2023/02/08 01:40:31;;;;;;;7.75;6.18;;;3.00;79.10;;;;;;5097263;28;20109;-84
2023/02/08 01:42:56;;;;;;;9.20;7.47;;;3.00;79.10;;;;;;5114866;28;20380;-87
2023/02/08 01:45:29;;;;;;;9.68;7.32;;;2.90;79.00;;;;;;5131395;27;20405;-84
2023/02/08 01:48:07;;;;;;;7.90;6.55;;;2.90;79.00;;;;;;5114887;28;20059;-84
2023/02/08 01:50:40;;;;;;;8.43;6.72;;;2.90;79.00;;;;;;5114105;28;20028;-83
2023/02/08 01:53:07;;;;;;;8.88;6.57;;;2.90;78.90;;;;;;5113906;28;20070;-83
2023/02/08 01:55:37;;;;;;;7.78;6.40;;;2.90;78.90;;;;;;5131146;27;20115;-84
2023/02/08 01:58:07;;;;;;;8.88;7.10;;;2.90;79.00;;;;;;5114323;28;20042;-84
2023/02/08 02:00:33;;;;;;;9.30;7.75;;;2.90;78.90;;;;;;5131398;27;20031;-83
2023/02/08 02:03:02;;;;;;;9.40;7.47;;;2.90;78.90;;;;;;5130557;27;20027;-84
2023/02/08 02:05:34;;;;;;;10.60;6.80;;;2.90;78.90;;;;;;5114773;28;20054;-83
2023/02/08 02:08:00;;;;;;;9.13;6.80;;;2.80;78.80;;;;;;5113257;28;20141;-84
2023/02/08 02:10:32;;;;;;;8.50;6.95;;;2.80;78.80;;;;;;5130507;28;20071;-83
2023/02/08 02:13:05;;;;;;;8.32;6.55;;;2.90;79.00;;;;;;5113807;28;20034;-84
2023/02/08 02:15:32;;;;;;;8.23;6.85;;;2.80;78.80;;;;;;5131693;28;20361;-84
2023/02/08 02:17:58;;;;;;;9.13;7.13;;;2.80;78.90;;;;;;5114599;28;20027;-83
2023/02/08 02:20:56;;;;;;;9.23;6.93;;;2.80;78.90;;;;;;5113576;28;20027;-84
2023/02/08 02:23:56;;;;;;;7.85;6.78;;;2.80;78.80;;;;;;5113706;28;20349;-83
2023/02/08 02:26:29;;;;;;;8.90;7.22;;;2.80;78.80;;;;;;5131023;28;20047;-84
2023/02/08 02:29:24;;;;;;;9.15;7.35;;;2.80;78.80;;;;;;5113916;28;20039;-84
2023/02/08 02:31:51;;;;;;;;;;;2.80;78.80;;;;;;5112293;28;20039;-83
2023/02/08 02:35:00;;;;;;;8.32;6.30;;;2.70;79.40;;;;;;5130364;28;19911;-83
2023/02/08 02:37:58;;;;;;;7.88;5.82;;;2.70;78.70;;;;;;5090761;28;20043;-83
2023/02/08 02:40:47;;;;;;;7.63;5.93;;;2.70;78.70;;;;;;5113152;28;20020;-84
2023/02/08 02:43:40;;;;;;;7.30;6.50;;;2.70;78.70;;;;;;5103587;28;20044;-83
2023/02/08 02:46:21;;;;;;;7.60;5.70;;;2.70;78.70;;;;;;5131288;28;20032;-83
2023/02/08 02:49:15;;;;;;;8.10;6.32;;;2.60;78.70;;;;;;5130598;28;20157;-84
2023/02/08 02:51:50;;;;;;;8.02;6.47;;;2.60;78.70;;;;;;5113573;28;20458;-83
2023/02/08 02:54:25;;;;;;;8.57;6.90;;;2.60;78.70;;;;;;5130538;28;20066;-84
2023/02/08 02:56:58;;;;;;;9.48;6.85;;;2.60;78.70;;;;;;5130673;28;20031;-83
2023/02/08 02:59:26;;;;;;;8.98;6.72;;;2.60;78.70;;;;;;5129993;28;20048;-83
2023/02/08 03:01:54;;;;;;;9.48;7.38;;;2.60;78.70;;;;;;5112786;28;20024;-83
2023/02/08 03:04:31;;;;;;;7.93;6.35;;;2.60;78.70;;;;;;5113387;28;20169;-84
2023/02/08 03:07:19;;;;;;;8.50;6.82;;;2.60;78.70;;;;;;5130036;28;20040;-84
2023/02/08 03:10:19;;;;;;;7.97;6.18;;;2.60;78.70;;;;;;5129751;28;20059;-84
2023/02/08 03:13:21;;;;;;;7.82;6.00;;;2.60;78.70;;;;;;5130309;28;20384;-84
2023/02/08 03:16:00;;;;;;;7.78;6.28;;;2.60;78.60;;;;;;5131646;27;20031;-83
2023/02/08 03:18:29;;;;;;;9.13;6.70;;;2.50;78.50;;;;;;5117192;28;20042;-83
2023/02/08 03:21:07;;;;;;;8.55;6.68;;;2.60;78.60;;;;;;5116526;28;20024;-85
2023/02/08 03:24:01;;;;;;;9.70;7.07;;;2.50;78.60;;;;;;5117147;28;20032;-84
2023/02/08 03:26:40;;;;;;;9.18;6.60;;;2.50;78.60;;;;;;5116573;28;20034;-84
2023/02/08 03:29:25;;;;;;;8.35;6.88;;;2.50;78.50;;;;;;5133841;27;20027;-85
2023/02/08 03:31:59;;;;;;;;;;;2.50;78.50;;;;;;5117780;28;20038;-84
2023/02/08 03:34:40;;;;;;;8.48;6.28;;;2.50;78.50;;;;;;5119035;28;19908;-82
2023/02/08 03:37:21;;;;;;;8.10;6.35;;;2.50;78.50;;;;;;5121998;28;20059;-84
2023/02/08 03:39:50;;;;;;;8.35;6.28;;;2.50;78.50;;;;;;5139917;27;20032;-84
2023/02/08 03:42:22;;;;;;;10.73;7.03;;;2.50;78.50;;;;;;5136542;27;20040;-84
2023/02/08 03:45:15;;;;;;;8.10;6.28;;;2.50;78.50;;;;;;5133512;27;20024;-84
2023/02/08 03:47:44;;;;;;;8.68;6.53;;;2.40;78.50;;;;;;5107404;28;20039;-84
2023/02/08 03:50:13;;;;;;;9.05;7.13;;;2.40;78.40;;;;;;5133036;27;20043;-84
2023/02/08 03:52:40;;;;;;;8.02;6.38;;;2.40;78.40;;;;;;5115788;28;20035;-84
2023/02/08 03:55:15;;;;;;;9.45;6.90;;;2.40;78.40;;;;;;5115903;28;20030;-84
2023/02/08 03:57:50;;;;;;;9.20;7.43;;;2.50;78.50;;;;;;5133100;27;20054;-83
2023/02/08 04:00:17;;;;;;;8.60;6.80;;;2.50;78.50;;;;;;5133217;27;20024;-84
2023/02/08 04:02:58;;;;;;;8.85;6.85;;;2.40;78.40;;;;;;5132959;27;20023;-84
2023/02/08 04:05:24;;;;;;;8.90;7.07;;;2.40;78.40;;;;;;5133119;27;20034;-83
2023/02/08 04:07:50;;;;;;;8.55;6.57;;;2.40;78.40;;;;;;5116493;28;20032;-84
2023/02/08 04:10:17;;;;;;;9.60;7.05;;;2.40;78.50;;;;;;5115402;28;20100;-83
2023/02/08 04:12:44;;;;;;;9.07;6.90;;;2.40;78.40;;;;;;5132752;27;20027;-83
2023/02/08 04:15:10;;;;;;;8.98;7.15;;;2.40;78.40;;;;;;5116505;28;20085;-83
2023/02/08 04:17:35;;;;;;;8.50;6.93;;;2.40;78.40;;;;;;5116134;28;20027;-84
2023/02/08 04:20:01;;;;;;;9.55;7.25;;;2.40;78.40;;;;;;5115538;28;20027;-84
2023/02/08 04:22:27;;;;;;;10.25;7.60;;;2.40;78.30;;;;;;5132275;27;20027;-83
2023/02/08 04:24:53;;;;;;;8.70;7.07;;;2.40;78.40;;;;;;5114809;28;20039;-83
2023/02/08 04:27:21;;;;;;;9.43;7.40;;;2.40;78.40;;;;;;5098761;28;20035;-83
2023/02/08 04:29:47;;;;;;;9.73;7.07;;;2.40;78.40;;;;;;5132255;27;20464;-84
2023/02/08 04:32:13;;;;;;;9.65;6.95;;;2.40;78.30;;;;;;5115883;28;20032;-84
2023/02/08 04:34:39;;;;;;;9.05;7.32;;;2.30;78.30;;;;;;5132487;27;20028;-84
2023/02/08 04:37:06;;;;;;;9.20;7.38;;;2.40;78.30;;;;;;5131950;27;20046;-84
2023/02/08 04:39:35;;;;;;;8.90;7.32;;;2.40;78.30;;;;;;5114946;28;20035;-83
2023/02/08 04:42:01;;;;;;;9.10;7.00;;;2.40;78.30;;;;;;5114578;28;20492;-84
2023/02/08 04:44:27;;;;;;;9.50;7.10;;;2.30;78.30;;;;;;5115028;28;20061;-83
2023/02/08 04:46:52;;;;;;;8.40;6.75;;;2.30;78.30;;;;;;5114952;28;20024;-82
2023/02/08 04:49:18;;;;;;;9.07;6.65;;;2.30;78.30;;;;;;5114284;28;20044;-83
2023/02/08 04:51:44;;;;;;;8.60;6.68;;;2.30;78.30;;;;;;5131561;27;20051;-83
2023/02/08 04:54:10;;;;;;;8.77;6.82;;;2.30;78.30;;;;;;5131944;27;20035;-83
2023/02/08 04:56:36;;;;;;;8.73;7.28;;;2.30;78.30;;;;;;5098685;28;20024;-83
2023/02/08 04:59:02;;;;;;;8.65;6.80;;;2.30;78.20;;;;;;5132008;27;20352;-83
2023/02/08 05:01:28;;;;;;;9.00;6.75;;;2.30;78.30;;;;;;5131965;27;20452;-83
2023/02/08 05:03:54;;;;;;;9.23;7.38;;;2.30;78.30;;;;;;5131523;27;20031;-83
2023/02/08 05:06:19;;;;;;;9.20;7.40;;;2.20;78.20;;;;;;5131834;27;20018;-83
2023/02/08 05:08:45;;;;;;;9.45;7.53;;;2.30;78.20;;;;;;5114263;27;20039;-83
2023/02/08 05:11:11;;;;;;;10.52;7.75;;;2.20;78.10;;;;;;5114588;28;20031;-83
2023/02/08 05:13:37;;;;;;;9.68;7.40;;;2.30;78.20;;;;;;5115084;28;20047;-83
2023/02/08 05:16:03;;;;;;;8.45;6.82;;;2.30;78.20;;;;;;5115073;28;20099;-83
2023/02/08 05:18:29;;;;;;;9.07;7.25;;;2.20;78.20;;;;;;5114158;28;20034;-82
2023/02/08 05:20:59;;;;;;;9.65;7.28;;;2.30;78.20;;;;;;5114856;28;20032;-83
2023/02/08 05:23:26;;;;;;;9.50;7.50;;;2.30;78.20;;;;;;5131338;27;20095;-83
2023/02/08 05:25:52;;;;;;;8.57;6.85;;;2.20;78.10;;;;;;5131510;27;20497;-83
2023/02/08 05:28:18;;;;;;;10.27;7.85;;;2.20;78.10;;;;;;5131214;27;20031;-83
2023/02/08 05:30:45;;;;;;;9.38;7.35;;;2.20;78.20;;;;;;5114131;28;20047;-83
2023/02/08 05:33:11;;;;;;;8.63;7.15;;;2.20;78.20;;;;;;5114069;28;20525;-83
2023/02/08 05:35:37;;;;;;;9.10;7.43;;;2.20;78.20;;;;;;5131929;27;20022;-84
2023/02/08 05:38:03;;;;;;;8.85;7.00;;;2.20;78.20;;;;;;5130544;27;20114;-83
2023/02/08 05:40:28;;;;;;;9.30;7.00;;;2.20;78.20;;;;;;5113732;28;20099;-82
2023/02/08 05:42:54;;;;;;;9.23;7.28;;;2.20;78.20;;;;;;5130291;27;20494;-81
2023/02/08 05:45:20;;;;;;;9.18;7.68;;;2.20;78.20;;;;;;5115015;28;20032;-81
2023/02/08 05:47:46;;;;;;;9.50;7.43;;;2.10;78.10;;;;;;5113117;28;20142;-83
2023/02/08 05:50:13;;;;;;;9.35;6.95;;;2.20;78.10;;;;;;5131271;27;20028;-82
2023/02/08 05:52:39;;;;;;;9.60;7.57;;;2.20;78.70;;;;;;5113528;28;20032;-82
2023/02/08 05:55:06;;;;;;;7.93;6.43;;;2.20;78.10;;;;;;5130697;27;20551;-82
2023/02/08 05:57:32;;;;;;;8.77;6.78;;;2.20;78.10;;;;;;5130371;27;20035;-82
2023/02/08 05:59:58;;;;;;;10.23;7.13;;;2.20;78.00;;;;;;5113468;28;20080;-83
2023/02/08 06:02:24;;;;;;;10.05;7.43;;;2.10;78.10;;;;;;5130270;27;20034;-82
2023/02/08 06:04:50;;;;;;;9.82;7.35;;;2.20;78.10;;;;;;5130420;27;20012;-81
2023/02/08 06:07:15;;;;;;;9.77;7.30;;;2.10;78.10;;;;;;5113681;28;20024;-81
2023/02/08 06:09:41;;;;;;;9.50;7.57;;;2.10;78.00;;;;;;5112580;28;20055;-81
2023/02/08 06:12:07;;;;;;;9.20;7.55;;;2.10;78.00;;;;;;5114330;28;20027;-83
2023/02/08 06:14:33;;;;;;;9.95;6.97;;;2.10;78.00;;;;;;5130185;28;20042;-82
2023/02/08 06:16:59;;;;;;;9.95;7.60;;;2.10;78.00;;;;;;5112668;28;20030;-80
2023/02/08 06:19:24;;;;;;;11.02;7.78;;;2.10;78.00;;;;;;5129974;28;20031;-82
2023/02/08 06:21:50;;;;;;;8.85;7.03;;;2.20;78.10;;;;;;5113184;28;20445;-85
2023/02/08 06:24:16;;;;;;;8.55;7.22;;;2.10;78.00;;;;;;5130419;28;20417;-82
2023/02/08 06:26:43;;;;;;;9.45;7.55;;;2.10;78.00;;;;;;5113783;28;20187;-81
2023/02/08 06:29:09;;;;;;;8.50;6.53;;;2.10;78.00;;;;;;5112628;28;20031;-83
2023/02/08 06:31:35;;;;;;;9.90;7.50;;;2.10;78.60;;;;;;5129857;28;20085;-80
2023/02/08 06:34:01;;;;;;;9.25;7.60;;;2.10;78.00;;;;;;5112467;28;20020;-79
2023/02/08 06:36:27;;;;;;;9.60;7.57;;;2.10;78.00;;;;;;5129703;28;20034;-82
2023/02/08 06:38:53;;;;;;;10.13;7.90;;;2.10;78.00;;;;;;5129249;28;20035;-80
2023/02/08 06:41:19;;;;;;;8.40;7.13;;;2.10;78.00;;;;;;5112913;28;20100;-81
2023/02/08 06:43:45;;;;;;;8.82;7.25;;;2.10;78.10;;;;;;5129916;28;20035;-80
2023/02/08 06:46:10;;;;;;;9.25;7.45;;;2.10;78.10;;;;;;5112615;28;20028;-83
2023/02/08 06:48:36;;;;;;;10.48;7.95;;;2.00;78.00;;;;;;5112327;28;20039;-80
2023/02/08 06:51:02;;;;;;;10.02;8.25;;;2.00;78.00;;;;;;5114779;28;20383;-81
2023/02/08 06:53:28;;;;;;;10.00;7.80;;;2.10;78.10;;;;;;5133459;27;20023;-80
2023/02/08 06:55:54;;;;;;;10.18;7.93;;;2.10;78.10;;;;;;5116509;28;20028;-81
2023/02/08 06:58:20;;;;;;;10.10;7.47;;;2.00;78.10;;;;;;5133693;27;20471;-80
2023/02/08 07:00:46;;;;;;;10.38;8.40;;;2.00;78.10;;;;;;5133484;27;20125;-81
2023/02/08 07:03:13;;;;;;;10.80;8.25;;;2.00;78.10;;;;;;5133551;27;20028;-80
2023/02/08 07:05:40;;;;;;;10.38;8.05;;;2.00;78.10;;;;;;5116392;28;20026;-80
2023/02/08 07:08:06;;;;;;;10.75;8.35;;;2.00;78.20;;;;;;5133720;27;20039;-80
2023/02/08 07:10:32;;;;;;;10.88;8.77;;;2.00;78.20;;;;;;5099505;28;20054;-80
2023/02/08 07:13:00;;;;;;;10.52;8.07;;;2.00;78.10;;;;;;5133632;27;20019;-79
2023/02/08 07:15:26;;;;;;;10.25;7.93;;;2.00;78.20;;;;;;5132664;27;20091;-81
2023/02/08 07:17:51;;;;;;;9.38;7.25;;;2.00;78.10;;;;;;5115524;28;20527;-81
2023/02/08 07:20:17;;;;;;;10.60;7.93;;;2.00;78.20;;;;;;5132819;27;20057;-81
2023/02/08 07:22:43;;;;;;;11.80;8.75;;;2.00;78.80;;;;;;5098205;28;20172;-81
2023/02/08 07:25:09;;;;;;;9.57;7.72;;;2.00;78.20;;;;;;5115551;28;20047;-79
2023/02/08 07:27:35;;;;;;;9.90;8.63;;;2.00;78.10;;;;;;5115172;28;20036;-82
2023/02/08 07:30:01;;;;;;;10.75;8.25;;;2.00;78.10;;;;;;5115644;28;20023;-82
2023/02/08 07:32:27;;;;;;;10.25;8.30;;;2.00;78.70;;;;;;5115059;28;20396;-82
2023/02/08 07:34:53;;;;;;;9.80;7.70;;;2.00;78.10;;;;;;5115954;27;20024;-78
2023/02/08 07:37:19;;;;;;;9.95;8.13;;;1.90;78.10;;;;;;5098552;28;20100;-79
2023/02/08 07:39:45;;;;;;;11.30;8.35;;;1.90;78.20;;;;;;5132257;27;20452;-79
2023/02/08 07:42:11;;;;;;;11.48;8.35;;;2.00;78.80;;;;;;5115196;28;20036;-79
2023/02/08 07:44:49;;;;;;;10.93;8.20;;;1.90;78.10;;;;;;5132437;27;20460;-79
2023/02/08 07:47:16;;;;;;;11.38;8.85;;;2.00;78.20;;;;;;5115592;28;20106;-78
2023/02/08 07:49:41;;;;;;;9.75;8.32;;;2.00;78.20;;;;;;5114990;28;20042;-79
2023/02/08 07:52:07;;;;;;;10.18;8.57;;;2.00;78.20;;;;;;5132155;27;20028;-79
2023/02/08 07:54:33;;;;;;;11.07;7.90;;;1.90;78.10;;;;;;5115167;27;20039;-79
2023/02/08 07:56:59;;;;;;;9.85;8.43;;;1.90;78.10;;;;;;5132242;27;20023;-79
2023/02/08 07:59:25;;;;;;;10.77;8.63;;;1.90;78.10;;;;;;5114645;28;20495;-79
2023/02/08 08:01:51;;;;;;;10.48;8.55;;;1.90;78.10;;;;;;5131636;27;20427;-79
2023/02/08 08:04:18;;;;;;;12.10;8.18;;;1.90;78.10;;;;;;5114974;28;20149;-79
2023/02/08 08:06:45;;;;;;;10.38;8.52;;;1.90;78.10;;;;;;5115353;28;20073;-81
2023/02/08 08:09:11;;;;;;;10.30;7.95;;;2.00;78.10;;;;;;5114896;28;20039;-78
2023/02/08 08:11:37;;;;;;;11.98;8.48;;;1.90;78.00;;;;;;5114991;28;20106;-79
2023/02/08 08:14:03;;;;;;;10.70;8.30;;;1.90;78.10;;;;;;5114383;28;20031;-79
2023/02/08 08:16:28;;;;;;;12.77;8.15;;;1.90;78.10;;;;;;5131583;27;20533;-79
2023/02/08 08:18:54;;;;;;;9.50;8.25;;;1.90;78.10;;;;;;5114674;27;20476;-78
2023/02/08 08:21:20;;;;;;;10.90;9.25;;;1.90;78.10;;;;;;5131602;27;20071;-79
2023/02/08 08:23:46;;;;;;;9.82;7.65;;;1.90;78.10;;;;;;5097709;28;20035;-81
2023/02/08 08:26:15;;;;;;;10.73;8.45;;;2.00;78.20;;;;;;5131722;27;20024;-78
2023/02/08 08:28:41;;;;;;;9.43;7.60;;;1.90;78.20;;;;;;5115421;27;20076;-78
2023/02/08 08:31:13;;;;;;;9.80;8.20;;;1.90;78.20;;;;;;5097165;28;20506;-78
2023/02/08 08:33:39;;;;;;;10.90;8.30;;;2.00;78.20;;;;;;5131386;27;20057;-79
2023/02/08 08:36:05;;;;;;;10.40;8.07;;;1.90;78.20;;;;;;5114686;28;20099;-79
2023/02/08 08:38:31;;;;;;;9.98;8.20;;;2.00;78.20;;;;;;5131234;27;20551;-78
2023/02/08 08:40:57;;;;;;;11.25;8.43;;;2.00;78.20;;;;;;5113966;28;20130;-77
2023/02/08 08:43:22;;;;;;;10.85;8.02;;;1.90;78.20;;;;;;5130800;27;20081;-80
2023/02/08 08:45:48;;;;;;;11.23;8.73;;;1.90;78.20;;;;;;5113531;28;20077;-79
2023/02/08 08:48:14;;;;;;;10.15;8.00;;;2.00;78.30;;;;;;5113446;28;20563;-78
2023/02/08 08:50:41;;;;;;;10.23;8.25;;;1.90;78.20;;;;;;5097179;28;20028;-80
2023/02/08 08:53:08;;;;;;;11.00;8.68;;;1.90;78.20;;;;;;5114364;28;20054;-80
2023/02/08 08:55:33;;;;;;;10.57;7.70;;;2.00;78.30;;;;;;5114884;28;20036;-80
2023/02/08 08:57:59;;;;;;;11.32;8.30;;;2.00;78.30;;;;;;5130684;27;20051;-78
2023/02/08 09:00:26;;;;;;;9.88;8.13;;;2.00;78.30;;;;;;5130599;27;20035;-80
2023/02/08 09:02:52;;;;;;;10.73;8.38;;;2.00;78.30;;;;;;5130419;27;20077;-80
2023/02/08 09:05:18;;;;;;;11.50;8.60;;;2.00;78.30;;;;;;5130718;27;20024;-80
2023/02/08 09:07:43;;;;;;;10.52;8.05;;;2.00;78.30;;;;;;5113216;28;20035;-79
2023/02/08 09:10:09;;;;;;;11.27;8.40;;;2.00;78.30;;;;;;5113113;28;20058;-80
2023/02/08 09:12:35;;;;;;;10.65;8.38;;;2.00;78.30;;;;;;5096961;28;20484;-80
2023/02/08 09:15:01;;;;;;;10.68;8.23;;;2.00;78.30;;;;;;5114710;28;20076;-80
2023/02/08 09:17:26;;;;;;;9.88;8.45;;;2.00;78.30;;;;;;5131421;27;20118;-80
2023/02/08 09:19:52;;;;;;;10.05;7.93;;;2.00;78.30;;;;;;5130721;27;20030;-81
2023/02/08 09:22:19;;;;;;;9.77;8.30;;;2.00;78.30;;;;;;5113452;28;20035;-79
2023/02/08 09:24:45;;;;;;;10.23;8.00;;;2.10;78.30;;;;;;5096577;28;20035;-79
2023/02/08 09:27:10;;;;;;;9.88;8.05;;;2.10;78.30;;;;;;5113079;28;20035;-80
2023/02/08 09:29:36;;;;;;;10.75;8.32;;;2.10;78.30;;;;;;5112996;28;20035;-80
2023/02/08 09:32:02;;;;;;;10.57;8.25;;;2.10;78.30;;;;;;5113273;28;20032;-80
2023/02/08 09:34:28;;;;;;;9.10;7.20;;;2.10;78.30;;;;;;5113952;28;20176;-79
2023/02/08 09:36:53;;;;;;;10.13;7.95;;;2.20;78.30;;;;;;5095847;28;20068;-79
2023/02/08 09:39:23;;;;;;;10.02;8.30;;;2.20;78.30;;;;;;5095832;28;20036;-80
2023/02/08 09:42:04;;;;;;;8.95;7.30;;;2.20;78.30;;;;;;5114333;28;20024;-79
2023/02/08 09:45:14;;;;;;;10.40;7.93;;;2.20;78.30;;;;;;5129952;27;20072;-80
2023/02/08 09:47:53;;;;;;;9.63;7.88;;;2.30;78.40;;;;;;5097519;28;20126;-79
2023/02/08 09:50:30;;;;;;;9.32;7.57;;;2.30;78.30;;;;;;5129928;27;20094;-80
2023/02/08 09:53:27;;;;;;;9.35;7.82;;;2.30;78.30;;;;;;5114625;28;20053;-80
2023/02/08 09:55:57;;;;;;;9.75;8.00;;;2.40;78.40;;;;;;5113419;28;20497;-79
2023/02/08 09:58:51;;;;;;;9.15;7.57;;;2.30;78.30;;;;;;5130384;27;20032;-79
2023/02/08 10:01:32;;;;;;;8.88;6.55;;;2.40;78.40;;;;;;5109760;28;20039;-80
2023/02/08 10:04:16;;;;;;;9.77;7.45;;;2.40;78.30;;;;;;5112514;28;20027;-80
2023/02/08 10:06:42;;;;;;;10.60;7.60;;;2.50;78.30;;;;;;5114450;28;20031;-80
2023/02/08 10:09:13;;;;;;;10.38;7.55;;;2.50;78.30;;;;;;5113336;28;20457;-80
2023/02/08 10:12:06;;;;;;;8.93;7.07;;;2.50;78.40;;;;;;5113934;28;20484;-80
2023/02/08 10:15:02;;;;;;;8.20;6.90;;;2.60;78.50;;;;;;5129896;28;20028;-81
2023/02/08 10:17:42;;;;;;;9.25;7.38;;;2.60;78.40;;;;;;5106857;28;20036;-80
2023/02/08 10:20:26;;;;;;;8.80;7.18;;;2.60;78.40;;;;;;5130083;28;20032;-82
2023/02/08 10:23:02;;;;;;;9.20;7.32;;;2.70;78.40;;;;;;5130288;28;20043;-80
2023/02/08 10:26:02;;;;;;;9.35;6.78;;;2.70;78.30;;;;;;5133214;27;20066;-79
2023/02/08 10:28:30;;;;;;;8.93;7.38;;;2.80;78.40;;;;;;5118292;28;20035;-80
2023/02/08 10:31:02;;;;;;;9.95;7.18;;;2.80;78.30;;;;;;5117835;28;20026;-80
2023/02/08 10:33:51;;;;;;;9.98;7.70;;;2.90;78.50;;;;;;5134757;27;20088;-80
2023/02/08 10:36:20;;;;;;;8.90;6.90;;;2.90;78.50;;;;;;5118089;28;20111;-79
2023/02/08 10:38:50;;;;;;;8.15;6.53;;;2.90;78.40;;;;;;5116847;28;20055;-81
2023/02/08 10:41:32;;;;;;;10.00;6.88;;;3.00;78.50;;;;;;5116868;28;20524;-79
2023/02/08 10:44:20;;;;;;;8.48;6.28;;;3.00;78.50;;;;;;5133455;27;20456;-80
2023/02/08 10:46:54;;;;;;;8.88;6.53;;;3.10;78.50;;;;;;5134465;27;20032;-80
2023/02/08 10:49:43;;;;;;;8.25;6.32;;;3.10;78.50;;;;;;5117401;28;20027;-80
2023/02/08 10:52:09;;;;;;;9.50;7.13;;;3.10;78.60;;;;;;5117375;28;20050;-80
2023/02/08 10:54:35;;;;;;;8.65;6.70;;;3.20;78.50;;;;;;5116384;28;20032;-80
2023/02/08 10:57:04;;;;;;;9.02;7.07;;;3.20;78.60;;;;;;5116981;28;20038;-81
2023/02/08 10:59:35;;;;;;;9.27;6.65;;;3.20;78.70;;;;;;5117545;28;20169;-80
2023/02/08 11:02:01;;;;;;;10.07;7.75;;;3.30;78.70;;;;;;5133352;27;20474;-80
2023/02/08 11:04:27;;;;;;;8.60;7.22;;;3.30;78.70;;;;;;5098843;28;20039;-80
2023/02/08 11:06:53;;;;;;;8.63;6.68;;;3.30;78.70;;;;;;5133182;27;20024;-80
2023/02/08 11:09:23;;;;;;;8.00;6.68;;;3.40;78.80;;;;;;5099098;28;20051;-81
2023/02/08 11:11:51;;;;;;;7.93;6.25;;;3.40;78.90;;;;;;5115632;28;20040;-81
2023/02/08 11:14:33;;;;;;;8.82;6.78;;;3.40;78.90;;;;;;5115539;28;20031;-81
2023/02/08 11:16:59;;;;;;;7.85;6.38;;;3.50;79.00;;;;;;5116200;28;20028;-80
2023/02/08 11:19:32;;;;;;;8.55;5.97;;;3.50;78.90;;;;;;5116944;28;20537;-81
2023/02/08 11:21:58;;;;;;;7.97;6.50;;;3.50;79.00;;;;;;5116055;28;20031;-80
2023/02/08 11:24:42;;;;;;;9.48;7.18;;;3.50;79.00;;;;;;5116395;28;20047;-81
2023/02/08 11:27:18;;;;;;;7.78;6.15;;;3.60;79.10;;;;;;5116214;28;20040;-81
2023/02/08 11:29:44;;;;;;;8.82;6.53;;;3.60;79.10;;;;;;5133711;27;20044;-81
2023/02/08 11:32:18;;;;;;;7.57;6.20;;;3.60;79.00;;;;;;5115451;28;20032;-80
2023/02/08 11:34:45;;;;;;;9.15;6.60;;;3.60;79.20;;;;;;5116393;28;20114;-80
2023/02/08 11:37:15;;;;;;;8.23;6.50;;;3.70;79.20;;;;;;5098295;28;20039;-80
2023/02/08 11:40:00;;;;;;;8.77;6.25;;;3.70;79.20;;;;;;5133056;27;20057;-81
2023/02/08 11:42:28;;;;;;;8.57;6.38;;;3.80;79.40;;;;;;5133095;27;20019;-80
2023/02/08 11:44:56;;;;;;;8.30;6.35;;;3.80;79.30;;;;;;5132586;27;20020;-80
2023/02/08 11:47:39;;;;;;;7.82;6.40;;;3.80;79.40;;;;;;5115560;28;20028;-81
2023/02/08 11:50:07;;;;;;;7.50;5.85;;;3.80;79.50;;;;;;5132824;27;20043;-81
2023/02/08 11:52:35;;;;;;;8.85;6.50;;;3.90;79.40;;;;;;5115443;28;20344;-81
2023/02/08 11:55:23;;;;;;;7.60;6.03;;;3.90;79.50;;;;;;5116446;28;20028;-81
2023/02/08 11:57:54;;;;;;;7.35;5.70;;;3.90;79.50;;;;;;5132404;27;20452;-82
2023/02/08 12:00:25;;;;;;;6.55;4.88;;;4.00;79.50;;;;;;5116467;28;20459;-81
2023/02/08 12:02:59;;;;;;;6.80;6.00;;;4.00;79.60;;;;;;5115290;28;20110;-82
2023/02/08 12:05:33;;;;;;;7.15;5.65;;;4.00;79.60;;;;;;5132549;27;20019;-81
2023/02/08 12:08:05;;;;;;;7.10;5.78;;;4.10;79.70;;;;;;5132489;27;20503;-81
2023/02/08 12:10:58;;;;;;;7.93;5.88;;;4.10;79.70;;;;;;5131991;27;20550;-81
2023/02/08 12:13:26;;;;;;;6.85;5.35;;;4.10;79.80;;;;;;5132358;27;20039;-81
2023/02/08 12:16:35;;;;;;;7.75;5.78;;;4.20;79.80;;;;;;5132676;27;20024;-81
2023/02/08 12:19:22;;;;;;;7.13;5.93;;;4.20;79.90;;;;;;5052944;28;20037;-81
2023/02/08 12:22:13;;;;;;;7.18;5.63;;;4.20;79.90;;;;;;5114051;28;20472;-81
2023/02/08 12:24:59;;;;;;;6.90;5.45;;;4.30;80.00;;;;;;5114216;28;20039;-82
2023/02/08 12:27:54;;;;;;;6.47;5.60;;;4.30;79.90;;;;;;5131843;27;20056;-81
2023/02/08 12:30:31;;;;;;;6.38;5.05;;;4.30;80.00;;;;;;5114962;27;20536;-80
2023/02/08 12:33:33;;;;;;;6.78;5.35;;;4.40;80.00;;;;;;5131594;27;20076;-80
2023/02/08 12:36:05;;;;;;;6.68;5.22;;;4.40;80.10;;;;;;5132181;27;20024;-80
2023/02/08 12:42:20;;;;;;;6.57;5.45;;;4.50;80.10;;;;;;5115876;28;20028;-79
2023/02/08 12:45:23;;;;;;;6.45;4.72;;;4.50;80.00;;;;;;5131078;27;20027;-81
2023/02/08 12:48:03;;;;;;;6.20;4.82;;;4.60;80.00;;;;;;5099681;28;20534;-81
2023/02/08 12:50:30;;;;;;;6.28;5.00;;;4.70;80.10;;;;;;5116338;28;20028;-81
2023/02/08 12:53:20;;;;;;;8.18;5.15;;;4.70;80.00;;;;;;5131062;27;20031;-80
2023/02/08 12:55:48;;;;;;;7.47;5.38;;;4.80;80.20;;;;;;5131583;27;20477;-79
2023/02/08 12:58:29;;;;;;;6.82;5.30;;;4.80;80.10;;;;;;5114732;28;20445;-79
2023/02/08 13:01:00;;;;;;;6.55;4.88;;;4.90;80.20;;;;;;5131276;27;20055;-80
2023/02/08 13:03:52;;;;;;;6.85;5.15;;;4.90;80.10;;;;;;5113769;28;20028;-81
2023/02/08 13:06:23;;;;;;;6.95;5.18;;;5.00;80.10;;;;;;5130378;27;20031;-80
2023/02/08 13:09:18;;;;;;;6.88;5.35;;;5.00;80.10;;;;;;5113111;28;20032;-80
2023/02/08 13:11:53;;;;;;;6.95;5.10;;;5.10;80.10;;;;;;5113520;28;20484;-80
2023/02/08 13:14:31;;;;;;;6.70;4.82;;;5.10;80.10;;;;;;5131228;27;20031;-80
2023/02/08 13:17:06;;;;;;;7.13;5.22;;;5.10;80.10;;;;;;5114945;28;20096;-80
2023/02/08 13:19:47;;;;;;;6.78;5.40;;;5.20;80.20;;;;;;5114454;28;20082;-80